Hauptseite
METAR-TAF:

METAR-TAF

Flughäfen :

Flughafen Bonriki

Tarawa, Kiribati

Breite: 01-21N, Länge: 172-55E, Höhe: 2 m

Beobachtung

Neuester Wetterbericht von vor 57 Minuten, um 21:00 UTC
Wind 4 kt aus Ost
Temperatur 30°C
Luftfeuchtigkeit 75%
Luftdruck 1010 hPa
Sichtweite 10 km oder mehr
Leicht bewölkt in der Höhe von 2000 ft
Durchbrochene Bewölkung in der Höhe von 30000 ft

METAR: NGTA 152100Z 10004KT 9999 FEW020 BKN300 30/25 Q1010

Zeit: 11:57 (21:57 UTC)

Prognose

Neuester Wetterbericht von vor 4 Stunden und 33 Minuten, um 17:24 UTC
Gültige Prognose vom 15 um 18 UTC bis 16 um 18 UTC
Wind 5 kt aus Ost
Sichtweite 10 km oder mehr
Leicht bewölkt in der Höhe von 1900 ft
Aufgelockert bewölkt in der Höhe von 10000 ft

TAF: NGTA 151724Z 1518/1618 10005KT 9999 FEW019 SCT100

Wetterbeobachtungen und Prognosen von mehr als 4000 Flughäfen (METAR und TAF Bericht).

Die verfügbaren Stationen werden durch gelbe und rote Markierungen auf der Karte dargestellt.

Führen Sie die Maus auf sie, um den Namen der Station zu sehen.

Darauf klicken, um die Beobachtung von Wetterbeobachtungen und Prognosen zu sehen.

Um die Karte zu ändern : klicken Sie auf den grünen Tasten mit einem schwarzen Kreuz Zum Vergrößern, auf den grünen Button mit einem Gedankenstrich zu verkleinern, oder auf die grünen Pfeile für benachbarte Karten.


METAR-TAF: